Terminal Aerodrome Forecast
Issued by NWS

Home | Current Version | Previous Version | Text Only | Print | Product List | Glossary On
Versions: 1 2 3 4 5 6 7 8 9 10 11 12 13 14 15 16 17
000
FTUS42 KMLB 222300
TAFISM
TAF
KISM 222325Z 2300/2324 04009KT P6SM SCT250
     FM230300 01006KT P6SM SCT250
     FM231400 04010KT P6SM SCT250
      AMD NOT SKED 2302/2311=

USA.gov is the U.S. government's official web portal to all federal, state and local government web resources and services.